Time;durP1;ratioP1;P1;durP2;ratioP2;P2;SDS_P1;SDS_P2;PMS_P1;PMS_P2;Temp;Humidity;BMP_temperature;BMP_pressure;BME280_temperature;BME280_humidity;BME280_pressure;Samples;Min_cycle;Max_cycle;Signal;HPM_P1;HPM_P2
2022/12/01 00:02:00;;;;;;;81.65;28.98;;;;;;;4.04;54.28;102824.16;4991234;28;20116;-72
2022/12/01 00:04:26;;;;;;;76.65;28.95;;;;;;;4.01;54.10;102828.44;5006833;28;20088;-71
2022/12/01 00:06:51;;;;;;;78.60;29.50;;;;;;;3.96;54.46;102829.16;5004677;28;20029;-71
2022/12/01 00:12:01;;;;;;;78.43;27.83;;;;;;;4.00;54.19;102824.06;4991526;28;20188;-71
2022/12/01 00:14:26;;;;;;;79.35;31.08;;;;;;;3.94;54.65;102820.50;5007711;28;20061;-73
2022/12/01 00:16:52;;;;;;;73.43;28.55;;;;;;;3.98;54.46;102818.03;4993207;28;20030;-71
2022/12/01 00:19:17;;;;;;;72.75;28.00;;;;;;;4.00;54.42;102825.78;4995428;28;20467;-73
2022/12/01 00:21:44;;;;;;;74.68;30.42;;;;;;;4.01;54.50;102825.84;5008985;28;20450;-71
2022/12/01 00:24:11;;;;;;;80.05;28.30;;;;;;;4.02;54.26;102830.16;4996163;28;20049;-72
2022/12/01 00:26:37;;;;;;;78.65;29.55;;;;;;;3.93;54.51;102826.53;4994800;28;20041;-73
2022/12/01 00:29:03;;;;;;;78.57;28.08;;;;;;;3.97;54.52;102824.03;4994248;28;20116;-74
2022/12/01 00:31:28;;;;;;;83.10;30.35;;;;;;;4.07;54.34;102822.47;5011624;28;20040;-70
2022/12/01 00:33:54;;;;;;;74.03;26.27;;;;;;;4.00;54.68;102825.78;5007917;28;20041;-71
2022/12/01 00:36:21;;;;;;;79.10;31.05;;;;;;;4.07;54.66;102826.78;5011209;28;20038;-71
2022/12/01 00:38:46;;;;;;;79.20;27.63;;;;;;;4.03;54.58;102820.69;4993949;28;20045;-71
2022/12/01 00:41:12;;;;;;;78.13;28.00;;;;;;;4.05;54.59;102820.69;4997315;28;20026;-71
2022/12/01 00:43:38;;;;;;;70.75;27.08;;;;;;;4.08;54.12;102813.88;4992575;28;20041;-70
2022/12/01 00:46:04;;;;;;;86.72;28.65;;;;;;;4.15;54.70;102820.03;4980386;28;20196;-70
2022/12/01 00:48:29;;;;;;;77.47;29.45;;;;;;;4.16;54.36;102817.50;4994035;28;20134;-71
2022/12/01 00:50:55;;;;;;;81.45;29.40;;;;;;;4.19;54.07;102819.25;4996750;28;20022;-70
2022/12/01 00:53:22;;;;;;;80.10;28.38;;;;;;;4.14;54.09;102824.34;5009935;28;20046;-69
2022/12/01 00:55:47;;;;;;;75.40;27.50;;;;;;;4.12;54.34;102826.03;4993927;28;20049;-69
2022/12/01 00:58:13;;;;;;;86.57;29.50;;;;;;;4.15;54.09;102820.03;4995205;28;20302;-69
2022/12/01 01:00:39;;;;;;;90.85;30.83;;;;;;;4.13;54.12;102829.50;4993802;28;20034;-69
2022/12/01 01:03:07;;;;;;;76.40;26.52;;;;;;;4.13;54.39;102821.72;4996002;28;20053;-69
2022/12/01 01:05:40;;;;;;;78.00;27.52;;;;;;;4.12;54.34;102826.03;4994185;28;20042;-70
2022/12/01 01:08:07;;;;;;;75.03;30.92;;;;;;;4.09;54.46;102832.88;5008230;28;20072;-70
2022/12/01 01:10:36;;;;;;;77.18;27.75;;;;;;;4.16;54.24;102826.94;4992229;28;20117;-69
2022/12/01 01:13:01;;;;;;;70.78;25.95;;;;;;;4.20;54.54;102828.75;4994676;28;20128;-70
2022/12/01 01:15:27;;;;;;;89.78;29.60;;;;;;;4.15;54.67;102826.09;4995683;28;20041;-69
2022/12/01 01:17:52;;;;;;;78.93;28.77;;;;;;;4.16;54.42;102832.13;4993469;28;20058;-70
2022/12/01 01:20:18;;;;;;;78.45;27.27;;;;;;;4.15;54.54;102831.25;5010475;28;20085;-68
2022/12/01 01:22:43;;;;;;;75.70;28.83;;;;;;;4.16;54.37;102832.13;5008181;28;20224;-69
2022/12/01 01:25:08;;;;;;;80.38;27.50;;;;;;;4.18;54.51;102835.63;4996229;28;20076;-67
2022/12/01 01:27:34;;;;;;;69.68;27.17;;;;;;;4.15;54.58;102836.44;4989628;28;20073;-69
2022/12/01 01:29:59;;;;;;;71.28;25.77;;;;;;;4.20;54.74;102837.38;4994601;28;20030;-73
2022/12/01 01:32:25;;;;;;;80.72;28.10;;;;;;;4.20;54.28;102844.28;4992337;28;20046;-71
2022/12/01 01:34:50;;;;;;;84.22;29.85;;;;;;;4.06;54.77;102836.28;4993526;28;20092;-71
2022/12/01 01:37:16;;;;;;;72.97;26.83;;;;;;;4.12;54.88;102836.38;4993872;28;20042;-72
2022/12/01 01:39:41;;;;;;;74.43;27.50;;;;;;;4.06;54.72;102831.09;4993370;28;20053;-73
2022/12/01 01:42:11;;;;;;;78.50;28.50;;;;;;;4.15;54.92;102835.56;4994475;28;20061;-71
2022/12/01 01:44:57;;;;;;;81.40;30.42;;;;;;;4.08;54.87;102842.34;4991027;28;20125;-71
2022/12/01 01:47:27;;;;;;;87.63;30.83;;;;;;;4.08;54.68;102838.91;4993052;28;20056;-70
2022/12/01 01:49:57;;;;;;;89.45;29.52;;;;;;;4.11;55.05;102841.53;4994002;28;20101;-70
2022/12/01 01:52:23;;;;;;;81.22;29.58;;;;;;;4.12;55.00;102840.66;5009142;28;20121;-71
2022/12/01 01:54:52;;;;;;;83.13;27.27;;;;;;;4.16;54.78;102842.47;4991642;28;20061;-71
2022/12/01 01:57:25;;;;;;;75.15;28.05;;;;;;;4.17;54.70;102839.94;4994148;28;20140;-72
2022/12/01 01:59:55;;;;;;;90.97;28.67;;;;;;;4.11;54.84;102844.97;5008022;28;20037;-72
2022/12/01 02:02:21;;;;;;;89.47;30.33;;;;;;;4.13;54.90;102842.44;4991869;28;20649;-72
2022/12/01 02:04:53;;;;;;;83.22;30.27;;;;;;;4.07;54.85;102837.13;4992791;28;20079;-71
2022/12/01 02:07:19;;;;;;;;;;;;;;;4.11;54.87;102842.41;4994286;28;20605;-73
2022/12/01 02:09:45;;;;;;;85.97;28.55;;;;;;;4.07;55.23;102847.47;4991118;28;20267;-74
2022/12/01 02:12:29;;;;;;;78.40;28.10;;;;;;;4.08;54.93;102836.31;4993565;28;20132;-73
2022/12/01 02:15:00;;;;;;;85.50;28.77;;;;;;;4.09;54.76;102835.44;4989846;28;20407;-73
2022/12/01 02:17:34;;;;;;;77.80;29.52;;;;;;;4.09;54.85;102838.03;5003544;28;20072;-71
2022/12/01 02:20:19;;;;;;;76.82;27.15;;;;;;;4.10;55.20;102842.38;5019249;28;20034;-69
2022/12/01 02:23:03;;;;;;;71.00;24.60;;;;;;;4.17;54.94;102841.66;5007251;28;20046;-70
2022/12/01 02:26:02;;;;;;;78.45;26.67;;;;;;;4.14;54.66;102829.53;5008345;28;20117;-70
2022/12/01 02:28:38;;;;;;;72.68;24.92;;;;;;;4.12;54.91;102832.91;4993646;28;20124;-70
2022/12/01 02:31:15;;;;;;;72.05;27.70;;;;;;;4.14;55.35;102833.81;4993471;28;20048;-71
2022/12/01 02:34:07;;;;;;;72.10;24.33;;;;;;;4.14;55.12;102833.81;4975900;28;20046;-71
2022/12/01 02:36:41;;;;;;;72.43;24.50;;;;;;;4.14;55.26;102836.41;4992534;28;20049;-71
2022/12/01 02:39:20;;;;;;;69.18;24.60;;;;;;;4.15;55.34;102832.97;5007182;28;20483;-71
2022/12/01 02:41:51;;;;;;;58.53;24.45;;;;;;;4.14;55.13;102828.63;4991204;28;20033;-70
2022/12/01 02:44:24;;;;;;;65.28;23.30;;;;;;;4.16;54.97;102824.34;4990155;28;20053;-70
2022/12/01 02:46:57;;;;;;;58.60;22.65;;;;;;;4.18;54.99;102822.66;5007036;28;20089;-70
2022/12/01 02:49:29;;;;;;;56.90;21.38;;;;;;;4.17;55.21;102826.13;4991708;28;20069;-70
2022/12/01 02:51:57;;;;;;;50.83;20.50;;;;;;;4.17;54.97;102824.41;4991487;28;20053;-70
2022/12/01 02:54:24;;;;;;;55.10;19.48;;;;;;;4.12;55.18;102835.50;5007853;28;20420;-69
2022/12/01 02:56:53;;;;;;;47.60;19.65;;;;;;;4.10;55.63;102826.84;4990375;28;20121;-69
2022/12/01 02:59:18;;;;;;;47.15;18.73;;;;;;;4.11;55.42;102836.34;4990720;28;20013;-69
2022/12/01 03:01:53;;;;;;;44.95;18.20;;;;;;;4.09;55.39;102825.09;4991446;28;20482;-70
2022/12/01 03:04:56;;;;;;;47.28;19.30;;;;;;;4.02;55.50;102829.28;5011725;28;20073;-69
2022/12/01 03:07:43;;;;;;;38.72;16.70;;;;;;;4.20;55.34;102829.63;5011585;28;20045;-72
2022/12/01 03:10:55;;;;;;;45.58;19.48;;;;;;;4.08;55.54;102831.13;4992097;28;20785;-72
2022/12/01 03:13:28;;;;;;;30.83;12.83;;;;;;;4.09;55.24;102835.44;5009094;28;20060;-71
2022/12/01 03:15:53;;;;;;;41.22;17.83;;;;;;;4.07;55.53;102827.66;5010623;28;20041;-72
2022/12/01 03:18:46;;;;;;;46.78;17.83;;;;;;;4.13;55.26;102832.94;4993920;28;20052;-71
2022/12/01 03:21:32;;;;;;;46.08;19.13;;;;;;;4.13;55.55;102832.09;5013256;28;20188;-72
2022/12/01 03:24:05;;;;;;;46.28;17.05;;;;;;;4.16;55.51;102829.53;5011125;28;20041;-71
2022/12/01 03:26:34;;;;;;;44.03;16.73;;;;;;;4.20;55.10;102828.75;4996956;28;20143;-72
2022/12/01 03:29:07;;;;;;;40.45;17.92;;;;;;;4.22;55.24;102822.75;5009334;28;20043;-71
2022/12/01 03:31:39;;;;;;;36.83;16.55;;;;;;;4.16;55.41;102817.50;5012429;28;20445;-71
2022/12/01 03:34:25;;;;;;;47.78;18.15;;;;;;;4.12;55.47;102819.97;5011299;28;20134;-71
2022/12/01 03:37:06;;;;;;;44.03;18.63;;;;;;;4.18;55.05;102820.09;4992418;28;20407;-72
2022/12/01 03:39:34;;;;;;;44.95;18.17;;;;;;;4.15;55.05;102814.88;5010964;28;20041;-72
2022/12/01 03:42:20;;;;;;;36.25;18.90;;;;;;;4.16;55.42;102826.94;4977656;28;20069;-69
2022/12/01 03:44:54;;;;;;;39.60;16.58;;;;;;;4.17;55.29;102816.63;5009360;28;20465;-68
2022/12/01 03:47:23;;;;;;;41.38;17.38;;;;;;;4.19;55.15;102812.34;4992083;28;20571;-69
2022/12/01 03:49:50;;;;;;;41.35;16.55;;;;;;;4.16;55.47;102812.31;5010357;28;20037;-68
2022/12/01 03:52:27;;;;;;;41.92;15.98;;;;;;;4.23;55.31;102813.28;5009869;28;20182;-69
2022/12/01 03:55:14;;;;;;;41.60;15.95;;;;;;;4.20;55.26;102816.66;4992152;28;20149;-69
2022/12/01 03:58:04;;;;;;;44.72;18.25;;;;;;;4.14;55.17;102808.81;4992762;28;20702;-70
2022/12/01 04:00:30;;;;;;;35.90;16.77;;;;;;;4.10;55.22;102816.50;5011847;28;20399;-69
2022/12/01 04:03:01;;;;;;;36.20;16.83;;;;;;;4.12;55.58;102809.63;5009931;28;20080;-70
2022/12/01 04:05:27;;;;;;;41.95;17.25;;;;;;;4.11;55.52;102816.50;4994448;28;20071;-69
2022/12/01 04:07:53;;;;;;;46.65;18.05;;;;;;;4.07;55.34;102816.44;4992100;28;20163;-69
2022/12/01 04:10:20;;;;;;;49.95;19.13;;;;;;;4.13;55.36;102814.81;5010730;28;20545;-68
2022/12/01 04:12:46;;;;;;;59.70;19.05;;;;;;;4.17;55.12;102826.13;5011063;28;20112;-77
2022/12/01 04:15:13;;;;;;;52.33;21.83;;;;;;;4.13;55.45;102824.31;4997375;28;20041;-77
2022/12/01 04:17:43;;;;;;;53.00;20.80;;;;;;;4.22;55.12;102829.66;4994382;28;20033;-78
2022/12/01 04:20:12;;;;;;;52.70;19.67;;;;;;;4.25;54.96;102829.69;4998094;28;20179;-77
2022/12/01 04:22:37;;;;;;;59.42;22.17;;;;;;;4.22;55.29;102821.88;4994134;28;20405;-71
2022/12/01 04:25:05;;;;;;;55.47;20.13;;;;;;;4.19;55.22;102833.06;4996595;28;20044;-71
2022/12/01 04:27:31;;;;;;;55.72;19.80;;;;;;;4.16;54.99;102822.66;5006344;28;20566;-71
2022/12/01 04:29:56;;;;;;;64.85;22.42;;;;;;;4.25;55.30;102827.09;4993129;28;20029;-71
2022/12/01 04:32:22;;;;;;;58.50;21.83;;;;;;;4.19;55.03;102827.03;5010405;28;20076;-71
2022/12/01 04:34:47;;;;;;;61.63;20.65;;;;;;;4.21;54.97;102831.38;4995430;28;20466;-71
2022/12/01 04:37:13;;;;;;;64.25;20.85;;;;;;;4.23;55.21;102831.41;5010862;28;20045;-71
2022/12/01 04:39:40;;;;;;;63.83;21.70;;;;;;;4.22;55.09;102834.84;4995847;28;20136;-70
2022/12/01 04:42:06;;;;;;;56.38;20.15;;;;;;;4.21;55.07;102830.50;5013793;28;20045;-71
2022/12/01 04:44:32;;;;;;;60.30;21.52;;;;;;;4.20;55.31;102831.34;5012186;28;20046;-76
2022/12/01 04:46:57;;;;;;;57.50;20.85;;;;;;;4.19;55.03;102824.44;4996291;28;20055;-76
2022/12/01 04:49:23;;;;;;;65.47;22.52;;;;;;;4.20;55.04;102831.34;4995274;28;20041;-77
2022/12/01 04:51:49;;;;;;;53.58;19.45;;;;;;;4.20;55.39;102826.16;5011100;28;20518;-76
2022/12/01 04:54:15;;;;;;;62.50;22.90;;;;;;;4.18;55.05;102825.25;5012948;28;20022;-76
2022/12/01 04:56:41;;;;;;;51.88;21.42;;;;;;;4.16;54.96;102832.13;4997812;28;20103;-76
2022/12/01 04:59:07;;;;;;;53.38;20.50;;;;;;;4.19;55.31;102824.44;5012881;28;20258;-75
2022/12/01 05:01:32;;;;;;;68.65;22.42;;;;;;;4.18;55.08;102827.84;5013159;28;20041;-76
2022/12/01 05:03:58;;;;;;;67.50;22.65;;;;;;;4.11;55.27;102831.19;4997342;28;20052;-78
2022/12/01 05:06:25;;;;;;;60.63;22.13;;;;;;;4.20;55.05;102832.22;5002238;28;20505;-76
2022/12/01 05:08:54;;;;;;;49.17;20.10;;;;;;;4.24;55.07;102834.88;4997815;28;20103;-77
2022/12/01 05:11:20;;;;;;;60.35;19.52;;;;;;;4.14;54.95;102833.81;4999806;28;20052;-79
2022/12/01 05:13:47;;;;;;;59.13;20.98;;;;;;;4.12;54.92;102835.50;4997750;28;20046;-76
2022/12/01 05:16:18;;;;;;;58.42;20.15;;;;;;;4.15;54.89;102830.41;5013902;28;20609;-68
2022/12/01 05:21:37;;;;;;;56.50;20.45;;;;;;;4.09;55.09;102835.44;4996418;28;20045;-68
2022/12/01 05:24:03;;;;;;;53.97;19.27;;;;;;;4.17;55.20;102845.09;5012301;28;20258;-70
2022/12/01 05:26:28;;;;;;;57.97;20.10;;;;;;;4.16;54.82;102838.19;5012501;28;20095;-70
2022/12/01 05:28:53;;;;;;;59.42;19.27;;;;;;;4.14;55.12;102844.16;5012379;28;20120;-71
2022/12/01 05:31:19;;;;;;;65.00;22.00;;;;;;;4.10;54.76;102847.56;5013641;28;20064;-70
2022/12/01 05:33:44;;;;;;;60.25;23.05;;;;;;;4.08;54.76;102844.06;5011013;28;20065;-71
2022/12/01 05:36:10;;;;;;;55.70;21.23;;;;;;;4.04;55.04;102847.44;5013787;28;20044;-71
2022/12/01 05:38:36;;;;;;;64.63;21.75;;;;;;;4.06;54.77;102841.44;5010319;28;20061;-69
2022/12/01 05:41:01;;;;;;;61.83;22.02;;;;;;;4.02;54.54;102850.84;5014141;28;20033;-71
2022/12/01 05:43:27;;;;;;;62.50;21.67;;;;;;;4.00;54.79;102847.34;5013134;28;20413;-70
2022/12/01 05:45:54;;;;;;;65.43;23.27;;;;;;;3.91;54.78;102844.59;4996489;28;20468;-71
2022/12/01 05:48:19;;;;;;;58.97;21.45;;;;;;;4.01;54.51;102837.91;5013873;28;20127;-70
2022/12/01 05:50:45;;;;;;;57.35;21.05;;;;;;;4.01;54.72;102846.53;4995905;28;20112;-69
2022/12/01 05:53:12;;;;;;;56.20;22.13;;;;;;;3.96;54.38;102848.19;5012358;28;20293;-68
2022/12/01 05:55:38;;;;;;;58.20;21.15;;;;;;;4.01;54.53;102849.13;5011431;28;20098;-68
2022/12/01 05:58:04;;;;;;;52.92;20.15;;;;;;;4.00;54.49;102852.53;5012822;28;20045;-69
2022/12/01 06:00:30;;;;;;;58.15;20.80;;;;;;;3.98;54.50;102851.66;5013803;28;20025;-70
2022/12/01 06:02:55;;;;;;;57.92;21.13;;;;;;;3.99;54.38;102845.63;4994022;28;22271;-69
2022/12/01 06:05:21;;;;;;;49.55;20.23;;;;;;;4.00;54.60;102847.34;5014108;28;20041;-70
2022/12/01 06:07:46;;;;;;;51.40;19.75;;;;;;;3.99;54.24;102849.94;5010464;28;20045;-69
2022/12/01 06:10:12;;;;;;;50.63;20.35;;;;;;;3.92;54.00;102842.91;5013818;28;20315;-71
2022/12/01 06:12:38;;;;;;;49.72;19.90;;;;;;;3.89;54.15;102848.88;5010395;28;20372;-70
2022/12/01 06:15:05;;;;;;;47.42;18.40;;;;;;;3.91;54.33;102842.00;5014105;28;20048;-81
2022/12/01 06:17:31;;;;;;;48.35;18.40;;;;;;;4.01;54.36;102843.09;5018786;28;20041;-80
2022/12/01 06:19:57;;;;;;;47.22;18.55;;;;;;;3.99;53.73;102845.63;5000562;28;20060;-80
2022/12/01 06:22:22;;;;;;;52.50;21.63;;;;;;;3.99;53.97;102844.78;5018092;28;20603;-78
2022/12/01 06:24:48;;;;;;;45.58;18.13;;;;;;;3.99;54.06;102844.78;4997280;28;20120;-77
2022/12/01 06:27:13;;;;;;;50.15;19.98;;;;;;;3.93;53.89;102840.34;4997115;28;20521;-77
2022/12/01 06:29:39;;;;;;;50.70;19.70;;;;;;;3.91;53.66;102854.09;4983535;28;20136;-75
2022/12/01 06:32:04;;;;;;;48.55;18.90;;;;;;;3.82;54.25;102848.72;5013895;28;20415;-76
2022/12/01 06:34:30;;;;;;;49.67;20.35;;;;;;;3.69;54.54;102845.88;5014015;28;20025;-71
2022/12/01 06:36:55;;;;;;;50.88;21.45;;;;;;;3.78;53.79;102835.75;4990963;28;20026;-70
2022/12/01 06:39:21;;;;;;;52.75;19.92;;;;;;;3.64;54.49;102842.34;5003076;28;20564;-72
2022/12/01 06:41:46;;;;;;;44.00;18.70;;;;;;;3.65;54.26;102838.94;5020303;28;20033;-71
2022/12/01 06:44:12;;;;;;;47.60;19.95;;;;;;;3.84;53.98;102837.56;5001187;28;20045;-73
2022/12/01 06:46:38;;;;;;;46.35;18.10;;;;;;;3.83;53.75;102840.13;4998858;28;20065;-71
2022/12/01 06:49:04;;;;;;;47.22;18.73;;;;;;;3.83;53.97;102843.59;5001096;28;20112;-74
2022/12/01 06:51:32;;;;;;;48.60;19.42;;;;;;;3.88;53.75;102847.16;4978695;28;20045;-72
2022/12/01 06:53:58;;;;;;;51.63;18.85;;;;;;;3.88;54.05;102851.44;5011980;28;20037;-70
2022/12/01 06:56:24;;;;;;;54.90;18.05;;;;;;;3.91;53.81;102857.53;4996742;28;20040;-70
2022/12/01 06:58:50;;;;;;;51.88;20.42;;;;;;;3.93;54.20;102855.84;4993347;28;20069;-69
2022/12/01 07:01:20;;;;;;;52.50;20.40;;;;;;;3.86;53.93;102859.16;5017582;28;20065;-69
2022/12/01 07:03:49;;;;;;;49.75;19.90;;;;;;;3.83;54.38;102861.72;5000330;28;20459;-71
2022/12/01 07:06:15;;;;;;;58.90;23.65;;;;;;;3.87;53.97;102868.66;4995857;28;20415;-70
2022/12/01 07:08:41;;;;;;;54.58;20.10;;;;;;;3.92;54.12;102863.63;5008831;28;20510;-72
2022/12/01 07:11:09;;;;;;;51.88;19.00;;;;;;;3.93;53.95;102875.69;4982067;28;20028;-72
2022/12/01 07:13:37;;;;;;;51.83;19.13;;;;;;;3.90;54.12;102879.09;4995262;28;20076;-68
2022/12/01 07:16:04;;;;;;;44.15;17.23;;;;;;;3.78;54.24;102882.31;5014422;28;20037;-66
2022/12/01 07:18:31;;;;;;;56.42;21.02;;;;;;;3.77;54.36;102877.97;5010995;28;20053;-68
2022/12/01 07:21:05;;;;;;;61.15;20.17;;;;;;;3.85;54.32;102882.41;4991908;28;20030;-70
2022/12/01 07:23:32;;;;;;;46.50;19.70;;;;;;;3.87;54.17;102884.19;4996596;28;20065;-67
2022/12/01 07:26:00;;;;;;;53.13;18.75;;;;;;;3.85;54.18;102883.31;5009687;28;20034;-70
2022/12/01 07:28:27;;;;;;;47.13;20.08;;;;;;;3.90;54.18;102884.25;5005730;28;20029;-69
2022/12/01 07:30:53;;;;;;;42.47;18.50;;;;;;;3.92;54.00;102887.75;5012408;28;20045;-72
2022/12/01 07:33:21;;;;;;;52.60;19.60;;;;;;;3.98;54.23;102898.25;4995010;28;20443;-72
2022/12/01 07:35:46;;;;;;;52.30;20.75;;;;;;;3.93;54.45;102897.25;4995266;28;20112;-71
2022/12/01 07:38:12;;;;;;;51.97;21.02;;;;;;;3.95;54.01;102898.16;5011223;28;20045;-73
2022/12/01 07:40:38;;;;;;;54.38;20.27;;;;;;;3.94;54.19;102899.00;5010879;28;20044;-74
2022/12/01 07:43:07;;;;;;;55.00;20.42;;;;;;;3.94;54.30;102911.06;4995374;28;20045;-73
2022/12/01 07:45:35;;;;;;;55.70;20.98;;;;;;;3.85;54.12;102911.75;5012482;28;20036;-74
2022/12/01 07:48:04;;;;;;;50.42;20.08;;;;;;;3.86;54.15;102908.31;5012081;28;20037;-73
2022/12/01 07:50:29;;;;;;;56.10;20.75;;;;;;;3.86;54.02;102910.91;4997242;28;20041;-74
2022/12/01 07:52:55;;;;;;;52.47;20.77;;;;;;;3.88;54.19;102917.00;5012044;28;20906;-73
2022/12/01 07:55:21;;;;;;;55.97;20.50;;;;;;;3.92;54.19;102918.81;5011104;28;20033;-71
2022/12/01 07:57:47;;;;;;;49.70;19.90;;;;;;;3.92;53.73;102911.03;5008129;28;20048;-73
2022/12/01 08:00:13;;;;;;;52.63;19.83;;;;;;;3.92;54.07;102916.22;5013587;28;20029;-72
2022/12/01 08:02:39;;;;;;;53.42;19.35;;;;;;;4.02;53.74;102918.13;4992557;28;20041;-72
2022/12/01 08:05:05;;;;;;;56.17;22.23;;;;;;;4.02;53.69;102917.25;4996293;28;20037;-72
2022/12/01 08:07:31;;;;;;;42.97;20.38;;;;;;;4.07;53.79;102920.81;4997443;28;20513;-73
2022/12/01 08:09:57;;;;;;;51.05;20.73;;;;;;;4.02;53.68;102922.44;5011143;28;20030;-74
2022/12/01 08:12:22;;;;;;;50.15;20.98;;;;;;;3.99;53.86;102918.09;4993456;28;20034;-73
2022/12/01 08:14:48;;;;;;;54.33;20.25;;;;;;;4.04;53.47;102919.91;5011965;28;20056;-71
2022/12/01 08:17:14;;;;;;;53.35;21.42;;;;;;;3.99;53.86;102923.25;5010796;28;20495;-69
2022/12/01 08:19:40;;;;;;;47.60;19.90;;;;;;;3.94;53.33;102922.31;5011845;28;20079;-70
2022/12/01 08:22:05;;;;;;;53.92;22.25;;;;;;;3.97;54.03;102919.75;5009268;28;20045;-70
2022/12/01 08:24:31;;;;;;;57.72;22.30;;;;;;;3.98;53.45;102926.69;5011855;28;20057;-69
2022/12/01 08:26:57;;;;;;;62.70;23.75;;;;;;;3.92;53.91;102931.75;5011325;28;20014;-69
2022/12/01 08:29:22;;;;;;;51.60;21.08;;;;;;;3.88;53.31;102924.75;5011277;28;20025;-72
2022/12/01 08:31:48;;;;;;;50.88;20.25;;;;;;;3.78;53.79;102933.16;5010054;28;20491;-70
2022/12/01 08:34:14;;;;;;;42.20;21.38;;;;;;;3.88;53.55;102923.88;4995991;28;20029;-70
2022/12/01 08:36:39;;;;;;;50.35;22.27;;;;;;;3.96;53.17;102936.16;5014896;28;20038;-70
2022/12/01 08:39:07;;;;;;;45.58;20.83;;;;;;;3.92;53.26;102936.06;5015668;28;20501;-69
2022/12/01 08:41:33;;;;;;;50.80;21.60;;;;;;;3.80;53.22;102936.63;5016744;28;20041;-70
2022/12/01 08:43:59;;;;;;;48.75;21.88;;;;;;;3.59;53.91;102937.06;5012479;28;20037;-69
2022/12/01 08:46:31;;;;;;;42.78;20.00;;;;;;;3.77;53.81;102937.47;5017134;28;20461;-70
2022/12/01 08:48:57;;;;;;;46.10;20.50;;;;;;;3.66;53.59;102938.94;4995459;28;20335;-70
2022/12/01 08:51:23;;;;;;;47.05;21.13;;;;;;;3.80;53.67;102939.22;5017193;28;20053;-70
2022/12/01 08:53:49;;;;;;;50.17;21.15;;;;;;;3.75;53.88;102953.78;4996203;28;20087;-69
2022/12/01 08:56:27;;;;;;;48.40;22.60;;;;;;;3.78;53.22;102943.50;5018231;28;20061;-67
2022/12/01 08:58:53;;;;;;;49.30;22.10;;;;;;;3.83;53.28;102952.25;5013764;28;20041;-70
2022/12/01 09:01:19;;;;;;;46.17;20.85;;;;;;;3.74;53.54;102945.16;5001064;28;20040;-71
2022/12/01 09:03:45;;;;;;;50.08;22.02;;;;;;;3.80;53.65;102952.16;5014794;28;20029;-69
2022/12/01 09:06:15;;;;;;;51.42;22.95;;;;;;;3.55;53.82;102954.22;5000550;28;20450;-70
2022/12/01 09:08:41;;;;;;;45.78;23.20;;;;;;;3.77;53.19;102952.97;4996191;28;20045;-71
2022/12/01 09:11:09;;;;;;;53.08;23.67;;;;;;;3.74;53.37;102950.34;5000802;28;20033;-69
2022/12/01 09:13:38;;;;;;;62.83;24.90;;;;;;;3.94;52.95;102955.94;4979329;28;20045;-69
2022/12/01 09:16:06;;;;;;;59.88;23.08;;;;;;;3.87;52.87;102955.75;4999964;28;20045;-69
2022/12/01 09:18:33;;;;;;;58.13;24.80;;;;;;;3.97;53.25;102950.81;4997086;28;20076;-67
2022/12/01 09:20:59;;;;;;;56.15;25.13;;;;;;;3.71;53.22;102965.75;5015209;28;20045;-69
2022/12/01 09:23:25;;;;;;;61.83;28.10;;;;;;;3.99;52.98;102948.28;5012742;28;20045;-70
2022/12/01 09:25:52;;;;;;;71.97;29.05;;;;;;;3.94;52.57;102944.69;4996492;28;20038;-68
2022/12/01 09:28:18;;;;;;;58.55;26.42;;;;;;;3.87;52.91;102948.00;5012496;28;20037;-69
2022/12/01 09:30:44;;;;;;;68.55;28.38;;;;;;;3.87;53.01;102951.44;4997027;28;20722;-69
2022/12/01 09:33:11;;;;;;;58.38;25.70;;;;;;;3.90;52.52;102948.06;5013194;28;20076;-69
2022/12/01 09:35:36;;;;;;;64.22;30.20;;;;;;;3.77;52.65;102952.09;5002985;28;20973;-68
2022/12/01 09:38:03;;;;;;;66.22;27.95;;;;;;;3.66;52.72;102957.03;5026059;28;20056;-69
2022/12/01 09:40:35;;;;;;;62.47;28.23;;;;;;;3.85;52.42;102950.56;5013538;28;20037;-69
2022/12/01 09:43:05;;;;;;;67.00;27.20;;;;;;;3.98;52.02;102944.81;5011805;28;20124;-69
2022/12/01 09:45:36;;;;;;;63.30;27.38;;;;;;;3.96;52.11;102949.09;4980973;28;20044;-70
2022/12/01 09:48:05;;;;;;;67.57;29.33;;;;;;;3.82;52.72;102947.91;5011684;28;20357;-69
2022/12/01 09:50:31;;;;;;;75.65;28.17;;;;;;;4.03;52.16;102950.09;5014757;28;20747;-69
2022/12/01 09:53:01;;;;;;;77.95;30.30;;;;;;;4.14;52.05;102942.50;5012130;28;20291;-68
2022/12/01 09:55:29;;;;;;;73.88;29.08;;;;;;;4.12;51.72;102944.19;4983518;28;20604;-68
2022/12/01 09:57:57;;;;;;;63.35;25.98;;;;;;;4.19;51.86;102940.91;5010313;28;20136;-70
2022/12/01 10:00:29;;;;;;;79.38;33.00;;;;;;;4.10;52.23;102946.78;5015071;28;20041;-68
2022/12/01 10:03:18;;;;;;;81.57;30.10;;;;;;;3.94;52.31;102935.25;5013062;28;20111;-69
2022/12/01 10:05:48;;;;;;;78.45;30.38;;;;;;;3.93;51.91;102938.66;4995051;28;20047;-68
2022/12/01 10:08:16;;;;;;;74.10;30.27;;;;;;;3.76;52.46;102934.81;4999008;28;20049;-67
2022/12/01 10:10:46;;;;;;;75.40;28.67;;;;;;;3.89;52.23;102931.66;4982660;28;20484;-70
2022/12/01 10:13:21;;;;;;;77.40;28.05;;;;;;;3.94;52.18;102935.25;5014678;28;20119;-68
2022/12/01 10:15:52;;;;;;;83.15;30.88;;;;;;;3.83;52.07;102935.84;5015902;28;20662;-67
2022/12/01 10:18:45;;;;;;;78.20;31.67;;;;;;;3.97;52.44;102934.44;5006258;28;20049;-68
2022/12/01 10:21:23;;;;;;;69.60;29.98;;;;;;;4.01;52.44;102933.66;5007025;28;20160;-67
2022/12/01 10:24:00;;;;;;;66.22;28.27;;;;;;;4.18;51.92;102931.38;4997385;28;20057;-71
2022/12/01 10:26:50;;;;;;;73.30;29.13;;;;;;;4.34;51.58;102936.03;5015464;28;20600;-71
2022/12/01 10:29:25;;;;;;;74.00;30.35;;;;;;;4.37;51.31;102933.50;4997581;28;20034;-69
2022/12/01 10:32:01;;;;;;;73.80;28.08;;;;;;;4.29;51.07;102932.47;5014000;28;20029;-70
2022/12/01 10:34:35;;;;;;;73.43;29.15;;;;;;;4.17;51.13;102932.25;5013630;28;20561;-67
2022/12/01 10:37:01;;;;;;;63.08;27.13;;;;;;;4.05;51.11;102925.13;5013674;28;20037;-69
2022/12/01 10:39:37;;;;;;;64.93;27.40;;;;;;;4.15;50.59;102933.91;4998922;28;20044;-70
2022/12/01 10:42:07;;;;;;;62.50;26.58;;;;;;;3.97;50.33;102934.44;5019437;28;20037;-68
2022/12/01 10:44:34;;;;;;;75.38;28.80;;;;;;;3.90;50.90;102936.00;5020457;28;20069;-69
2022/12/01 10:47:02;;;;;;;70.32;30.35;;;;;;;4.12;50.37;102931.25;5003023;28;20033;-70
2022/12/01 10:49:39;;;;;;;65.47;27.30;;;;;;;4.04;50.38;102931.13;5002903;28;20398;-68
2022/12/01 10:52:06;;;;;;;60.40;27.50;;;;;;;4.14;50.18;102927.88;5018093;28;20045;-71
2022/12/01 10:54:38;;;;;;;61.35;26.45;;;;;;;4.21;49.77;102934.06;5003788;28;20179;-70
2022/12/01 10:57:06;;;;;;;62.60;27.73;;;;;;;4.07;50.08;102935.47;5017922;28;20080;-66
2022/12/01 10:59:51;;;;;;;64.22;26.70;;;;;;;4.13;49.85;102931.28;5019241;28;20041;-69
2022/12/01 11:02:21;;;;;;;68.45;28.52;;;;;;;4.20;50.33;102932.28;5016954;28;20049;-67
2022/12/01 11:04:56;;;;;;;60.78;25.77;;;;;;;4.37;50.13;102936.09;5017362;28;20036;-72
2022/12/01 11:07:26;;;;;;;60.47;24.73;;;;;;;4.53;49.92;102936.38;5022259;28;20045;-77
2022/12/01 11:10:13;;;;;;;63.60;26.98;;;;;;;4.18;50.03;102929.66;4998381;28;20033;-71
2022/12/01 11:12:40;;;;;;;63.97;25.10;;;;;;;4.43;49.64;102930.13;5015554;28;20037;-69
2022/12/01 11:15:06;;;;;;;57.20;25.08;;;;;;;4.50;48.88;102931.13;4984178;28;20064;-69
2022/12/01 11:17:39;;;;;;;57.30;24.35;;;;;;;4.31;48.90;102940.25;5015647;28;20498;-70
2022/12/01 11:20:33;;;;;;;56.22;24.25;;;;;;;4.29;48.94;102929.88;5016662;28;20084;-70
2022/12/01 11:23:23;;;;;;;58.25;24.33;;;;;;;4.41;48.83;102918.91;5017252;28;20037;-68
2022/12/01 11:26:21;;;;;;;59.28;23.88;;;;;;;4.53;48.62;102923.41;4977396;28;20055;-69
2022/12/01 11:29:03;;;;;;;54.72;23.55;;;;;;;4.73;48.44;102914.28;5011180;28;20069;-70
2022/12/01 11:31:44;;;;;;;54.53;22.70;;;;;;;4.90;48.07;102916.31;5017218;28;20029;-71
2022/12/01 11:34:21;;;;;;;57.25;24.35;;;;;;;4.81;48.13;102917.88;5014845;28;20167;-69